Time;durP1;ratioP1;P1;durP2;ratioP2;P2;SDS_P1;SDS_P2;PMS_P1;PMS_P2;Temp;Humidity;BMP_temperature;BMP_pressure;BME280_temperature;BME280_humidity;BME280_pressure;Samples;Min_cycle;Max_cycle;Signal;HPM_P1;HPM_P2
2023/03/04 00:00:08;;;;;;;32.30;17.07;;;;;;;;;;5105185;28;20204;-83
2023/03/04 00:02:39;;;;;;;33.03;17.13;;;;;;;;;;5087603;28;20490;-83
2023/03/04 00:05:09;;;;;;;33.33;16.97;;;;;;;;;;5088090;28;20213;-82
2023/03/04 00:07:36;;;;;;;35.30;17.60;;;;;;;;;;5103689;28;20224;-82
2023/03/04 00:10:03;;;;;;;30.63;16.53;;;;;;;;;;5077155;28;20208;-82
2023/03/04 00:12:31;;;;;;;33.67;16.67;;;;;;;;;;5088536;28;20201;-83
2023/03/04 00:14:58;;;;;;;32.60;16.47;;;;;;;;;;5093933;28;20235;-83
2023/03/04 00:17:28;;;;;;;33.77;16.07;;;;;;;;;;5090165;28;20236;-82
2023/03/04 00:19:55;;;;;;;33.47;17.63;;;;;;;;;;5078632;28;20202;-82
2023/03/04 00:22:22;;;;;;;32.10;15.77;;;;;;;;;;5099065;28;20299;-83
2023/03/04 00:24:51;;;;;;;31.80;16.63;;;;;;;;;;5089634;28;20224;-82
2023/03/04 00:27:18;;;;;;;34.40;17.40;;;;;;;;;;5083125;28;20193;-82
2023/03/04 00:29:46;;;;;;;31.10;16.00;;;;;;;;;;5089706;28;20249;-82
2023/03/04 00:32:12;;;;;;;33.33;16.73;;;;;;;;;;5082795;28;20209;-82
2023/03/04 00:34:41;;;;;;;30.50;15.60;;;;;;;;;;5108330;27;20245;-82
2023/03/04 00:37:08;;;;;;;34.97;16.70;;;;;;;;;;5082046;28;20205;-82
2023/03/04 00:39:35;;;;;;;31.87;16.60;;;;;;;;;;5091529;28;20205;-82
2023/03/04 00:42:02;;;;;;;31.17;15.73;;;;;;;;;;5084985;28;20211;-82
2023/03/04 00:44:28;;;;;;;33.67;17.43;;;;;;;;;;5094012;28;20274;-82
2023/03/04 00:46:56;;;;;;;32.50;15.60;;;;;;;;;;5083607;28;20228;-82
2023/03/04 00:49:23;;;;;;;29.17;15.37;;;;;;;;;;5080902;28;20201;-82
2023/03/04 00:51:50;;;;;;;32.57;16.17;;;;;;;;;;5086675;28;20208;-82
2023/03/04 00:54:17;;;;;;;31.57;16.80;;;;;;;;;;5102329;28;20228;-82
2023/03/04 00:56:43;;;;;;;30.07;15.93;;;;;;;;;;5089794;28;20236;-83
2023/03/04 00:59:10;;;;;;;28.07;14.97;;;;;;;;;;5100758;28;20237;-82
2023/03/04 01:01:37;;;;;;;32.73;15.87;;;;;;;;;;5085123;28;20204;-82
2023/03/04 01:04:05;;;;;;;29.87;15.83;;;;;;;;;;5084881;28;20331;-82
2023/03/04 01:06:32;;;;;;;29.57;14.97;;;;;;;;;;5077654;28;20219;-82
2023/03/04 01:08:59;;;;;;;33.17;16.40;;;;;;;;;;5088453;28;20228;-82
2023/03/04 01:11:26;;;;;;;31.60;15.27;;;;;;;;;;5088050;28;20211;-82
2023/03/04 01:13:54;;;;;;;32.00;16.13;;;;;;;;;;5096959;28;20216;-82
2023/03/04 01:16:20;;;;;;;28.43;15.13;;;;;;;;;;5086613;28;20217;-82
2023/03/04 01:18:48;;;;;;;30.87;15.77;;;;;;;;;;5083355;28;20255;-81
2023/03/04 01:21:16;;;;;;;29.17;15.43;;;;;;;;;;5089637;28;20238;-82
2023/03/04 01:23:43;;;;;;;29.70;14.97;;;;;;;;;;5084436;28;20224;-82
2023/03/04 01:26:09;;;;;;;33.30;15.20;;;;;;;;;;5089392;28;20299;-82
2023/03/04 01:28:36;;;;;;;27.97;15.50;;;;;;;;;;5084091;28;20206;-82
2023/03/04 01:31:05;;;;;;;28.23;14.53;;;;;;;;;;5086854;28;20203;-83
2023/03/04 01:33:32;;;;;;;31.60;15.20;;;;;;;;;;5084403;28;20459;-82
2023/03/04 01:35:59;;;;;;;27.83;14.70;;;;;;;;;;5092292;28;20207;-83
2023/03/04 01:38:27;;;;;;;24.40;13.63;;;;;;;;;;5089143;28;20203;-82
2023/03/04 01:40:54;;;;;;;28.40;14.40;;;;;;;;;;5088248;28;20278;-82
2023/03/04 01:43:22;;;;;;;33.50;16.40;;;;;;;;;;5092266;28;20279;-82
2023/03/04 01:45:49;;;;;;;30.03;15.17;;;;;;;;;;5081569;28;20213;-82
2023/03/04 01:48:18;;;;;;;29.03;14.53;;;;;;;;;;5079890;28;20208;-82
2023/03/04 01:50:45;;;;;;;25.20;14.07;;;;;;;;;;5099863;28;20300;-82
2023/03/04 01:53:17;;;;;;;25.53;14.10;;;;;;;;;;5090241;28;20296;-83
2023/03/04 01:55:45;;;;;;;28.97;14.93;;;;;;;;;;5096526;28;20208;-82
2023/03/04 01:58:12;;;;;;;25.67;13.30;;;;;;;;;;5090497;28;20197;-82
2023/03/04 02:00:40;;;;;;;27.07;14.50;;;;;;;;;;5098564;28;20208;-81
2023/03/04 02:03:10;;;;;;;25.57;13.67;;;;;;;;;;5095796;28;20279;-82
2023/03/04 02:05:38;;;;;;;27.93;14.47;;;;;;;;;;5104695;28;20217;-82
2023/03/04 02:08:05;;;;;;;24.13;13.57;;;;;;;;;;5094488;28;20204;-83
2023/03/04 02:10:32;;;;;;;23.50;13.67;;;;;;;;;;5088041;28;20205;-83
2023/03/04 02:13:01;;;;;;;25.27;14.53;;;;;;;;;;5084855;28;20292;-82
2023/03/04 02:15:28;;;;;;;31.53;14.60;;;;;;;;;;5106624;27;20210;-82
2023/03/04 02:17:55;;;;;;;26.23;13.77;;;;;;;;;;5093181;27;20219;-82
2023/03/04 02:20:30;;;;;;;29.83;14.03;;;;;;;;;;5098665;28;20224;-82
2023/03/04 02:23:01;;;;;;;27.03;14.13;;;;;;;;;;5097619;28;20240;-82
2023/03/04 02:25:36;;;;;;;28.67;14.10;;;;;;;;;;5089370;28;20286;-82
2023/03/04 02:28:06;;;;;;;27.90;14.37;;;;;;;;;;5100887;27;20205;-82
2023/03/04 02:30:33;;;;;;;23.87;13.23;;;;;;;;;;5087717;28;20228;-82
2023/03/04 02:33:02;;;;;;;25.67;12.97;;;;;;;;;;5090111;28;20205;-83
2023/03/04 02:35:30;;;;;;;26.93;13.30;;;;;;;;;;5091430;28;20198;-82
2023/03/04 02:37:57;;;;;;;28.77;14.87;;;;;;;;;;5094612;28;20270;-82
2023/03/04 02:40:27;;;;;;;25.00;13.83;;;;;;;;;;5087268;28;20220;-82
2023/03/04 02:42:53;;;;;;;26.23;13.93;;;;;;;;;;5096281;28;20203;-82
2023/03/04 02:45:44;;;;;;;27.03;14.07;;;;;;;;;;5086585;28;20249;-83
2023/03/04 02:48:13;;;;;;;27.20;13.53;;;;;;;;;;5076957;28;20209;-82
2023/03/04 02:50:42;;;;;;;26.20;13.87;;;;;;;;;;5090790;28;20216;-82
2023/03/04 02:53:09;;;;;;;25.20;13.30;;;;;;;;;;5090165;28;20292;-82
2023/03/04 02:55:35;;;;;;;26.70;13.87;;;;;;;;;;5080485;28;20196;-81
2023/03/04 02:58:03;;;;;;;27.43;13.90;;;;;;;;;;5091011;28;20209;-82
2023/03/04 03:00:30;;;;;;;23.27;12.70;;;;;;;;;;5091250;28;20207;-82
2023/03/04 03:02:57;;;;;;;24.77;13.23;;;;;;;;;;5105699;27;20212;-82
2023/03/04 03:05:27;;;;;;;29.90;14.57;;;;;;;;;;5092184;28;20217;-82
2023/03/04 03:07:55;;;;;;;26.73;14.17;;;;;;;;;;5088202;28;20207;-82
2023/03/04 03:10:23;;;;;;;26.87;14.10;;;;;;;;;;5085247;28;20212;-83
2023/03/04 03:12:50;;;;;;;21.80;12.77;;;;;;;;;;5105884;28;20205;-81
2023/03/04 03:15:20;;;;;;;23.93;13.77;;;;;;;;;;5088767;28;20308;-83
2023/03/04 03:17:49;;;;;;;23.90;12.43;;;;;;;;;;5083379;28;20197;-82
2023/03/04 03:20:16;;;;;;;25.10;13.37;;;;;;;;;;5099474;28;20193;-82
2023/03/04 03:22:46;;;;;;;23.17;13.13;;;;;;;;;;5083646;28;20216;-82
2023/03/04 03:25:15;;;;;;;23.20;12.83;;;;;;;;;;5085020;28;20220;-82
2023/03/04 03:27:42;;;;;;;23.40;12.73;;;;;;;;;;5089234;28;20200;-82
2023/03/04 03:30:11;;;;;;;24.40;13.00;;;;;;;;;;5088960;28;20201;-82
2023/03/04 03:32:38;;;;;;;22.23;12.90;;;;;;;;;;5086698;28;20201;-82
2023/03/04 03:35:08;;;;;;;24.57;13.07;;;;;;;;;;5085563;28;20200;-83
2023/03/04 03:37:35;;;;;;;22.97;12.93;;;;;;;;;;5090188;28;20276;-82
2023/03/04 03:40:04;;;;;;;24.70;13.40;;;;;;;;;;5088639;28;20200;-82
2023/03/04 03:42:31;;;;;;;22.33;12.20;;;;;;;;;;5084829;28;20224;-82
2023/03/04 03:44:57;;;;;;;26.30;13.37;;;;;;;;;;5077564;28;20218;-82
2023/03/04 03:48:26;;;;;;;24.67;12.63;;;;;;;2.50;100.00;96576.59;5122194;27;20563;-79
2023/03/04 03:50:53;;;;;;;23.40;12.40;;;;;;;2.52;100.00;96583.44;5104949;28;20204;-79
2023/03/04 03:53:20;;;;;;;23.90;12.53;;;;;;;2.52;100.00;96583.44;5101189;28;20230;-79
2023/03/04 03:55:47;;;;;;;22.13;12.20;;;;;;;2.54;100.00;96589.44;5129466;27;20205;-79
2023/03/04 03:58:14;;;;;;;24.87;13.23;;;;;;;2.55;100.00;96587.59;5092991;28;20216;-79
2023/03/04 04:00:41;;;;;;;25.37;12.80;;;;;;;2.53;100.00;96590.44;5108459;28;20236;-79
2023/03/04 04:03:11;;;;;;;24.57;12.20;;;;;;;2.51;100.00;96587.09;5108060;28;20200;-79
2023/03/04 04:05:39;;;;;;;26.40;13.40;;;;;;;2.51;100.00;96600.44;5097410;28;20230;-79
2023/03/04 04:08:06;;;;;;;21.60;12.73;;;;;;;2.46;100.00;96601.97;5099357;28;20315;-79
2023/03/04 04:10:33;;;;;;;23.90;12.57;;;;;;;2.34;100.00;96601.50;5094224;28;20197;-80
2023/03/04 04:13:00;;;;;;;23.43;12.47;;;;;;;2.33;100.00;96593.69;5092349;28;20192;-79
2023/03/04 04:15:27;;;;;;;24.07;11.90;;;;;;;2.25;100.00;96598.03;5115005;28;20208;-78
2023/03/04 04:17:54;;;;;;;35.40;17.07;;;;;;;2.21;100.00;96586.06;5104947;28;20212;-79
2023/03/04 04:20:22;;;;;;;26.00;13.27;;;;;;;2.21;100.00;96596.72;5104270;28;20212;-79
2023/03/04 04:22:50;;;;;;;30.50;13.93;;;;;;;2.15;100.00;96594.75;5098768;28;20208;-79
2023/03/04 04:25:17;;;;;;;25.50;13.90;;;;;;;2.16;100.00;96596.41;5089612;28;20204;-79
2023/03/04 04:27:44;;;;;;;25.87;14.23;;;;;;;2.13;100.00;96596.75;5091764;28;20236;-79
2023/03/04 04:30:12;;;;;;;29.90;14.10;;;;;;;2.14;100.00;96605.56;5092694;28;20212;-79
2023/03/04 04:32:39;;;;;;;27.57;14.30;;;;;;;2.12;100.00;96603.09;5099966;28;20212;-80
2023/03/04 04:35:07;;;;;;;23.87;12.87;;;;;;;2.13;100.00;96607.41;5099284;28;20193;-79
2023/03/04 04:37:34;;;;;;;21.73;11.63;;;;;;;2.11;100.00;96604.09;5101331;28;20188;-79
2023/03/04 04:40:04;;;;;;;25.47;13.03;;;;;;;2.07;100.00;96604.59;5100231;28;20213;-79
2023/03/04 04:42:31;;;;;;;23.50;11.90;;;;;;;1.93;100.00;96603.47;5096558;28;20211;-79
2023/03/04 04:44:58;;;;;;;22.33;12.13;;;;;;;1.82;100.00;96603.81;5097920;28;20267;-79
2023/03/04 04:47:25;;;;;;;26.53;14.00;;;;;;;1.84;100.00;96609.81;5091496;28;20236;-78
2023/03/04 04:49:52;;;;;;;25.23;12.53;;;;;;;1.86;100.00;96613.16;5102760;28;20215;-79
2023/03/04 04:52:19;;;;;;;24.30;11.73;;;;;;;1.90;100.00;96606.47;5092708;28;20216;-79
2023/03/04 04:54:46;;;;;;;23.80;12.33;;;;;;;1.85;100.00;96608.81;5095588;28;20258;-80
2023/03/04 04:57:14;;;;;;;23.03;12.07;;;;;;;1.67;100.00;96611.69;5099525;28;20223;-79
2023/03/04 04:59:41;;;;;;;26.83;12.33;;;;;;;1.43;100.00;96598.41;5100195;28;20216;-78
2023/03/04 05:02:08;;;;;;;23.43;11.07;;;;;;;1.41;100.00;96603.06;5090520;28;20304;-78
2023/03/04 05:04:35;;;;;;;24.77;12.13;;;;;;;1.42;100.00;96608.22;5075768;28;20217;-79
2023/03/04 05:07:02;;;;;;;26.07;11.83;;;;;;;1.43;100.00;96607.22;5086976;28;20241;-79
2023/03/04 05:09:29;;;;;;;22.57;11.80;;;;;;;1.48;100.00;96615.53;5081544;28;20227;-79
2023/03/04 05:11:56;;;;;;;25.33;12.50;;;;;;;1.50;100.00;96607.38;5080261;28;20197;-79
2023/03/04 05:14:24;;;;;;;25.80;12.33;;;;;;;1.52;100.00;96600.06;5079951;28;20239;-79
2023/03/04 05:16:52;;;;;;;24.57;10.83;;;;;;;1.53;100.00;96610.50;5084281;28;20267;-80
2023/03/04 05:19:19;;;;;;;23.60;10.83;;;;;;;1.46;100.00;96608.69;5078765;28;20299;-79
2023/03/04 05:21:46;;;;;;;23.23;11.53;;;;;;;1.43;100.00;96614.38;5091783;28;20221;-79
2023/03/04 05:24:13;;;;;;;21.97;11.40;;;;;;;1.35;100.00;96615.22;5081649;28;20200;-79
2023/03/04 05:26:40;;;;;;;22.70;11.27;;;;;;;1.36;100.00;96616.84;5073465;28;20208;-79
2023/03/04 05:29:07;;;;;;;20.27;10.83;;;;;;;1.37;100.00;96607.03;5085562;28;20215;-79
2023/03/04 05:31:35;;;;;;;22.80;11.63;;;;;;;1.31;100.00;96610.38;5078240;28;20205;-79
2023/03/04 05:34:02;;;;;;;23.90;11.83;;;;;;;1.18;100.00;96605.56;5080332;28;20201;-78
2023/03/04 05:36:29;;;;;;;24.63;11.70;;;;;;;1.13;100.00;96605.22;5079759;28;20250;-79
2023/03/04 05:38:56;;;;;;;24.23;11.23;;;;;;;1.13;100.00;96599.88;5083487;28;20198;-79
2023/03/04 05:41:23;;;;;;;25.03;11.67;;;;;;;1.20;100.00;96608.03;5086550;28;20208;-79
2023/03/04 05:43:50;;;;;;;20.70;10.67;;;;;;;1.21;100.00;96602.56;5088965;28;20195;-78
2023/03/04 05:46:22;;;;;;;21.17;10.80;;;;;;;1.22;100.00;96609.53;5080661;28;20207;-79
2023/03/04 05:48:51;;;;;;;21.47;11.10;;;;;;;1.25;100.00;96609.22;5075784;28;20223;-79
2023/03/04 05:51:19;;;;;;;21.40;11.00;;;;;;;1.30;100.00;96606.88;5074295;28;20204;-80
2023/03/04 05:53:46;;;;;;;23.67;12.00;;;;;;;1.34;100.00;96607.38;5086690;28;20209;-78
2023/03/04 05:56:15;;;;;;;21.73;10.50;;;;;;;1.32;100.00;96612.88;5073611;28;20205;-79
2023/03/04 05:58:43;;;;;;;23.57;11.20;;;;;;;1.33;100.00;96611.88;5075603;28;20262;-78
2023/03/04 06:01:10;;;;;;;21.27;10.90;;;;;;;1.40;100.00;96615.53;5076526;28;20211;-78
2023/03/04 06:03:37;;;;;;;21.27;11.00;;;;;;;1.40;100.00;96615.53;5084938;28;20292;-79
2023/03/04 06:06:06;;;;;;;21.43;10.10;;;;;;;1.44;100.00;96618.69;5073732;28;20224;-79
2023/03/04 06:08:33;;;;;;;20.43;11.57;;;;;;;1.45;100.00;96618.50;5079631;28;20239;-79
2023/03/04 06:11:00;;;;;;;19.57;10.53;;;;;;;1.47;100.00;96621.84;5071533;28;20204;-79
2023/03/04 06:13:27;;;;;;;21.70;10.10;;;;;;;1.53;100.00;96626.47;5078186;28;20266;-79
2023/03/04 06:15:55;;;;;;;18.83;10.63;;;;;;;1.61;100.00;96631.00;5074353;28;20213;-79
2023/03/04 06:18:23;;;;;;;22.43;11.23;;;;;;;1.59;100.00;96629.50;5090408;28;20215;-79
2023/03/04 06:20:50;;;;;;;17.50;10.10;;;;;;;1.59;100.00;96627.66;5083534;28;20193;-78
2023/03/04 06:23:18;;;;;;;21.07;10.77;;;;;;;1.61;100.00;96640.81;5077401;28;20210;-79
2023/03/04 06:25:45;;;;;;;21.87;11.20;;;;;;;1.64;100.00;96635.97;5080057;28;20194;-79
2023/03/04 06:28:12;;;;;;;25.07;10.77;;;;;;;1.61;100.00;96644.31;5074435;28;20233;-78
2023/03/04 06:30:39;;;;;;;18.73;10.23;;;;;;;1.59;100.00;96634.81;5079544;28;20238;-79
2023/03/04 06:33:06;;;;;;;21.17;11.30;;;;;;;1.55;100.00;96633.47;5078789;28;20212;-79
2023/03/04 06:35:33;;;;;;;19.00;10.87;;;;;;;1.59;100.00;96640.97;5073151;28;20201;-79
2023/03/04 06:38:00;;;;;;;20.00;10.40;;;;;;;1.60;100.00;96641.81;5081252;28;20205;-79
2023/03/04 06:40:28;;;;;;;18.50;10.37;;;;;;;1.61;100.00;96638.97;5081656;28;20200;-79
2023/03/04 06:42:55;;;;;;;21.57;10.87;;;;;;;1.61;100.00;96633.66;5078784;28;20205;-79
2023/03/04 06:45:22;;;;;;;21.77;11.30;;;;;;;1.57;100.00;96644.78;5082944;28;20213;-78
2023/03/04 06:47:49;;;;;;;20.17;11.57;;;;;;;1.52;100.00;96642.66;5084007;28;20278;-79
2023/03/04 06:50:16;;;;;;;20.03;11.30;;;;;;;1.49;100.00;96642.97;5079847;28;20209;-79
2023/03/04 06:52:43;;;;;;;20.63;11.27;;;;;;;1.41;100.00;96648.28;5076534;28;20212;-79
2023/03/04 06:55:11;;;;;;;21.47;10.60;;;;;;;1.36;100.00;96648.78;5074652;28;20205;-78
2023/03/04 06:57:40;;;;;;;24.40;11.30;;;;;;;1.38;100.00;96643.28;5078911;28;20211;-78
2023/03/04 07:00:08;;;;;;;21.77;11.17;;;;;;;1.37;100.00;96641.63;5080545;28;20219;-79
2023/03/04 07:02:35;;;;;;;20.70;10.47;;;;;;;1.38;100.00;96652.09;5073602;28;20201;-79
2023/03/04 07:05:02;;;;;;;22.93;11.33;;;;;;;1.42;100.00;96652.63;5084148;28;20205;-79
2023/03/04 07:07:29;;;;;;;21.63;11.93;;;;;;;1.42;100.00;96649.97;5074900;28;20311;-80
2023/03/04 07:09:56;;;;;;;20.53;10.67;;;;;;;1.40;100.00;96650.13;5081108;28;20197;-79
2023/03/04 07:12:23;;;;;;;19.90;10.30;;;;;;;1.37;100.00;96661.06;5083633;28;20228;-79
2023/03/04 07:14:51;;;;;;;21.43;10.87;;;;;;;1.40;100.00;96655.44;5080870;28;20243;-79
2023/03/04 07:17:18;;;;;;;19.67;10.70;;;;;;;1.41;100.00;96665.09;5077416;28;20271;-79
2023/03/04 07:19:45;;;;;;;20.60;11.10;;;;;;;1.43;100.00;96664.94;5072469;28;20209;-79
2023/03/04 07:22:13;;;;;;;21.77;11.37;;;;;;;1.44;100.00;96664.75;5069350;28;20281;-79
2023/03/04 07:24:40;;;;;;;21.30;11.07;;;;;;;1.49;100.00;96665.09;5080044;28;20205;-79
2023/03/04 07:27:07;;;;;;;22.43;11.23;;;;;;;1.50;100.00;96669.41;5081251;28;20201;-79
2023/03/04 07:29:33;;;;;;;19.93;10.87;;;;;;;1.49;100.00;96666.91;5073866;28;20223;-79
2023/03/04 07:32:02;;;;;;;23.63;11.63;;;;;;;1.53;100.00;96666.41;5080635;28;20205;-79
2023/03/04 07:34:29;;;;;;;24.10;12.07;;;;;;;1.56;100.00;96665.25;5074714;28;20247;-79
2023/03/04 07:36:56;;;;;;;21.37;11.47;;;;;;;1.59;100.00;96661.44;5077667;28;20209;-79
2023/03/04 07:39:23;;;;;;;20.93;11.20;;;;;;;1.58;100.00;96662.44;5073566;28;20204;-80
2023/03/04 07:41:50;;;;;;;21.23;11.27;;;;;;;1.60;100.00;96665.75;5084777;28;20283;-79
2023/03/04 07:44:17;;;;;;;19.77;11.40;;;;;;;1.60;100.00;96671.91;5075314;28;20200;-78
2023/03/04 07:46:44;;;;;;;21.50;12.10;;;;;;;1.56;100.00;96659.09;5078785;28;20236;-78
2023/03/04 07:49:13;;;;;;;24.43;12.33;;;;;;;1.55;100.00;96668.06;5094410;28;20219;-79
2023/03/04 07:51:41;;;;;;;20.83;11.17;;;;;;;1.59;100.00;96669.41;5085380;28;20197;-79
2023/03/04 07:54:07;;;;;;;20.53;10.87;;;;;;;1.63;100.00;96666.25;5080431;28;20193;-79
2023/03/04 07:56:35;;;;;;;20.23;11.13;;;;;;;1.66;100.00;96665.91;5075594;28;20205;-79
2023/03/04 07:59:02;;;;;;;19.90;11.23;;;;;;;1.68;100.00;96669.25;5077795;28;20196;-79
2023/03/04 08:01:30;;;;;;;19.30;10.77;;;;;;;1.70;100.00;96675.22;5077238;28;20200;-79
2023/03/04 08:03:58;;;;;;;23.97;11.60;;;;;;;1.74;100.00;96679.22;5074713;28;20213;-79
2023/03/04 08:06:27;;;;;;;21.33;11.77;;;;;;;1.73;100.00;96668.72;5079384;28;20208;-79
2023/03/04 08:08:57;;;;;;;19.97;11.03;;;;;;;1.69;100.00;96670.91;5071965;28;20232;-79
2023/03/04 08:11:25;;;;;;;21.10;12.33;;;;;;;1.68;100.00;96665.75;5072779;28;20218;-80
2023/03/04 08:13:53;;;;;;;22.70;11.33;;;;;;;1.71;100.00;96679.53;5074226;28;20298;-80
2023/03/04 08:16:22;;;;;;;19.50;10.77;;;;;;;1.76;100.00;96676.41;5082993;28;20232;-79
2023/03/04 08:18:51;;;;;;;20.90;9.67;;;;;;;1.78;100.00;96677.06;5080948;28;20205;-79
2023/03/04 08:21:19;;;;;;;17.80;9.43;;;;;;;1.82;100.00;96670.38;5087970;28;20270;-80
2023/03/04 08:23:48;;;;;;;16.67;9.73;;;;;;;1.86;100.00;96669.06;5070449;28;20209;-80
2023/03/04 08:26:18;;;;;;;17.37;9.93;;;;;;;1.92;100.00;96665.72;5072723;28;20310;-80
2023/03/04 08:28:46;;;;;;;18.87;10.00;;;;;;;1.96;100.00;96669.69;5089010;28;20267;-80
2023/03/04 08:31:13;;;;;;;20.57;10.00;;;;;;;2.03;100.00;96673.38;5070838;28;20208;-79
2023/03/04 08:33:40;;;;;;;21.30;10.97;;;;;;;2.10;100.00;96662.88;5079680;28;20201;-79
2023/03/04 08:36:08;;;;;;;20.50;11.63;;;;;;;2.15;100.00;96672.00;5089321;28;20197;-81
2023/03/04 08:38:35;;;;;;;18.27;10.20;;;;;;;2.21;100.00;96667.84;5086553;28;20246;-79
2023/03/04 08:41:04;;;;;;;19.77;10.37;;;;;;;2.23;100.00;96658.66;5086851;28;20209;-80
2023/03/04 08:43:32;;;;;;;19.27;10.30;;;;;;;2.34;100.00;96669.94;5084695;28;20240;-79
2023/03/04 08:45:59;;;;;;;17.30;9.60;;;;;;;2.38;100.00;96660.63;5090501;28;20212;-80
2023/03/04 08:48:26;;;;;;;21.90;11.10;;;;;;;2.43;100.00;96658.25;5085666;28;20270;-80
2023/03/04 08:50:53;;;;;;;17.17;9.33;;;;;;;2.51;100.00;96658.22;5070777;28;20217;-78
2023/03/04 08:53:24;;;;;;;24.47;11.00;;;;;;;2.62;100.00;96650.69;5085996;28;20295;-80
2023/03/04 08:55:52;;;;;;;22.43;10.80;;;;;;;2.74;100.00;96651.13;5088509;28;20226;-79
2023/03/04 08:58:20;;;;;;;22.00;10.53;;;;;;;2.84;100.00;96638.41;5083479;28;20208;-80
2023/03/04 09:00:50;;;;;;;18.90;10.87;;;;;;;3.01;100.00;96633.81;5082896;28;20228;-80
2023/03/04 09:03:19;;;;;;;21.47;9.77;;;;;;;3.17;100.00;96640.88;5078301;28;20200;-81
2023/03/04 09:05:46;;;;;;;17.80;10.27;;;;;;;3.39;100.00;96629.41;5084876;28;20198;-81
2023/03/04 09:08:14;;;;;;;21.37;10.87;;;;;;;3.55;100.00;96637.28;5076105;28;20288;-80
2023/03/04 09:10:41;;;;;;;19.93;10.57;;;;;;;3.73;100.00;96639.63;5075321;28;20209;-80
2023/03/04 09:13:10;;;;;;;20.27;10.63;;;;;;;3.83;100.00;96639.38;5079318;28;20210;-81
2023/03/04 09:15:43;;;;;;;19.40;10.40;;;;;;;4.01;100.00;96626.47;5075686;28;20197;-81
2023/03/04 09:18:10;;;;;;;17.00;9.93;;;;;;;4.18;100.00;96628.81;5091515;28;20217;-81
2023/03/04 09:20:38;;;;;;;18.57;10.43;;;;;;;4.32;100.00;96631.69;5087231;28;20289;-81
2023/03/04 09:23:05;;;;;;;17.27;9.77;;;;;;;4.43;100.00;96631.19;5100470;27;20209;-81
2023/03/04 09:25:32;;;;;;;15.60;9.60;;;;;;;4.53;100.00;96627.22;5093480;28;20185;-81
2023/03/04 09:27:59;;;;;;;19.37;10.20;;;;;;;4.66;100.00;96623.09;5070901;28;20213;-81
2023/03/04 09:30:26;;;;;;;19.57;10.67;;;;;;;4.83;100.00;96632.56;5084283;28;20197;-80
2023/03/04 09:32:54;;;;;;;19.27;10.80;;;;;;;4.95;100.00;96629.19;5085403;28;20230;-78
2023/03/04 09:35:21;;;;;;;18.47;10.53;;;;;;;5.06;100.00;96621.69;5073940;28;20209;-77
2023/03/04 09:37:48;;;;;;;23.63;12.17;;;;;;;5.23;100.00;96625.78;5088177;28;20229;-78
2023/03/04 09:40:20;;;;;;;20.07;12.13;;;;;;;5.40;100.00;96621.00;5076872;28;20204;-78
2023/03/04 09:42:51;;;;;;;20.67;11.63;;;;;;;5.50;100.00;96622.38;5084452;28;20240;-78
2023/03/04 09:45:21;;;;;;;23.90;12.13;;;;;;;5.44;100.00;96627.66;5079766;28;20283;-77
2023/03/04 09:47:50;;;;;;;23.20;12.67;;;;;;;5.45;100.00;96618.59;5076778;28;20240;-78
2023/03/04 09:50:20;;;;;;;21.47;12.23;;;;;;;5.61;100.00;96629.06;5086176;28;20194;-78
2023/03/04 09:53:05;;;;;;;18.60;11.33;;;;;;;5.76;100.00;96624.44;5076199;28;20240;-77
2023/03/04 09:55:37;;;;;;;21.00;10.87;;;;;;;5.92;100.00;96624.38;5083523;28;20279;-77
2023/03/04 09:58:13;;;;;;;24.17;12.53;;;;;;;6.02;99.03;96623.88;5082381;28;20247;-77
2023/03/04 10:00:44;;;;;;;23.10;13.33;;;;;;;6.24;98.54;96619.25;5072882;28;20243;-77
2023/03/04 10:03:16;;;;;;;24.07;12.70;;;;;;;6.36;96.33;96617.69;5081157;28;20208;-77
2023/03/04 10:05:53;;;;;;;22.87;13.23;;;;;;;6.56;96.14;96615.94;5079301;28;20234;-77
2023/03/04 10:08:38;;;;;;;25.43;12.13;;;;;;;6.71;93.42;96615.81;5080024;28;20308;-77
2023/03/04 10:11:13;;;;;;;19.77;11.37;;;;;;;6.81;93.05;96614.41;5074417;28;20198;-77
2023/03/04 10:13:48;;;;;;;24.17;13.60;;;;;;;6.99;93.52;96613.84;5074191;28;20282;-77
2023/03/04 10:16:21;;;;;;;22.07;11.97;;;;;;;7.12;91.91;96607.72;5079061;28;20232;-76
2023/03/04 10:18:54;;;;;;;21.23;12.03;;;;;;;7.27;92.41;96605.69;5093503;28;20219;-77
2023/03/04 10:21:30;;;;;;;20.90;11.57;;;;;;;7.41;90.35;96601.16;5075565;28;20265;-77
2023/03/04 10:23:57;;;;;;;21.87;12.30;;;;;;;7.42;91.27;96603.63;5078917;28;20216;-77
2023/03/04 10:26:31;;;;;;;21.37;11.77;;;;;;;7.37;90.91;96598.06;5078170;28;20209;-77
2023/03/04 10:29:01;;;;;;;22.10;12.50;;;;;;;7.41;91.12;96599.28;5074838;28;20222;-77
2023/03/04 10:31:33;;;;;;;19.83;12.33;;;;;;;7.49;90.60;96604.47;5081070;28;20206;-76
2023/03/04 10:34:02;;;;;;;20.30;12.20;;;;;;;7.66;89.96;96596.00;5078279;28;20202;-77
2023/03/04 10:36:49;;;;;;;21.83;11.70;;;;;;;7.90;91.35;96593.56;5075531;28;20248;-76
2023/03/04 10:39:21;;;;;;;22.47;11.43;;;;;;;8.18;88.01;96592.47;5077153;28;20201;-76
2023/03/04 10:41:56;;;;;;;17.70;11.07;;;;;;;8.25;87.57;96594.09;5081619;28;20208;-76
2023/03/04 10:44:23;;;;;;;19.27;11.33;;;;;;;8.32;85.14;96592.28;5077546;28;20216;-76
2023/03/04 10:46:53;;;;;;;19.40;11.63;;;;;;;8.27;85.58;96586.66;5078491;28;20261;-77
2023/03/04 10:49:20;;;;;;;20.07;11.43;;;;;;;8.35;85.12;96586.47;5082752;28;20273;-77
2023/03/04 10:51:52;;;;;;;22.70;12.40;;;;;;;8.39;86.06;96578.00;5073083;28;20212;-77
2023/03/04 10:54:29;;;;;;;21.97;11.63;;;;;;;8.48;84.55;96572.16;5072926;28;20276;-78
2023/03/04 10:57:02;;;;;;;21.47;12.33;;;;;;;8.63;84.30;96575.44;5076528;28;20201;-77
2023/03/04 10:59:37;;;;;;;23.57;12.43;;;;;;;8.76;82.94;96571.03;5073351;28;20209;-77
2023/03/04 11:02:15;;;;;;;19.53;12.03;;;;;;;8.97;82.76;96570.72;5074953;28;20204;-77
2023/03/04 11:04:43;;;;;;;20.93;12.07;;;;;;;9.25;81.89;96565.00;5084628;28;20236;-77
2023/03/04 11:07:12;;;;;;;20.73;11.90;;;;;;;9.32;80.58;96563.06;5072455;28;20197;-77
2023/03/04 11:09:39;;;;;;;23.27;13.33;;;;;;;9.29;80.73;96558.09;5070098;28;20315;-77
2023/03/04 11:12:12;;;;;;;21.07;12.33;;;;;;;9.50;81.13;96555.06;5087164;28;20292;-77
2023/03/04 11:14:43;;;;;;;24.13;13.57;;;;;;;9.76;80.72;96564.84;5072970;28;20297;-77
2023/03/04 11:17:23;;;;;;;22.47;13.23;;;;;;;9.91;78.73;96553.72;5081883;28;20220;-77
2023/03/04 11:19:57;;;;;;;21.70;13.77;;;;;;;9.81;78.54;96562.28;5073251;28;20201;-78
2023/03/04 11:22:30;;;;;;;20.97;12.67;;;;;;;9.79;80.11;96548.19;5072214;28;20240;-77
2023/03/04 11:25:02;;;;;;;24.33;13.67;;;;;;;9.88;79.90;96547.69;5085760;28;20266;-77
2023/03/04 11:27:38;;;;;;;23.77;13.30;;;;;;;10.05;79.30;96552.53;5085735;28;20193;-77
2023/03/04 11:30:23;;;;;;;21.60;13.37;;;;;;;10.23;79.72;96544.50;5086294;28;20239;-78
2023/03/04 11:32:53;;;;;;;21.13;11.93;;;;;;;10.31;77.67;96546.91;5085799;28;20212;-78
2023/03/04 11:35:27;;;;;;;19.77;12.40;;;;;;;10.48;76.84;96539.88;5083134;28;20299;-78
2023/03/04 11:38:02;;;;;;;23.93;13.70;;;;;;;10.83;76.72;96536.56;5071998;28;20205;-77
2023/03/04 11:40:36;;;;;;;22.97;12.80;;;;;;;10.86;75.48;96536.94;5075822;28;20287;-78
2023/03/04 11:43:11;;;;;;;20.60;13.07;;;;;;;10.75;76.38;96532.28;5084235;28;20209;-77
2023/03/04 11:46:12;;;;;;;24.63;13.50;;;;;;;10.74;76.01;96533.34;5071256;28;20211;-77
2023/03/04 11:48:52;;;;;;;24.77;14.17;;;;;;;10.88;75.24;96525.91;5072288;28;20205;-77
2023/03/04 11:51:26;;;;;;;22.10;12.97;;;;;;;10.84;73.99;96519.28;5071295;28;20304;-77
2023/03/04 11:54:08;;;;;;;18.30;11.47;;;;;;;10.99;72.56;96514.31;5084175;28;20214;-78
2023/03/04 11:56:39;;;;;;;21.23;12.23;;;;;;;11.13;71.87;96517.66;5086391;28;20223;-77
2023/03/04 11:59:25;;;;;;;22.97;13.87;;;;;;;11.15;72.12;96510.97;5080893;28;20259;-77
2023/03/04 12:02:04;;;;;;;22.27;12.67;;;;;;;11.40;70.87;96501.88;5081336;28;20224;-77
2023/03/04 12:04:48;;;;;;;21.60;12.60;;;;;;;11.55;71.02;96507.69;5074450;28;20210;-77
2023/03/04 12:07:30;;;;;;;24.50;13.80;;;;;;;11.50;71.28;96499.41;5076110;28;20205;-77
2023/03/04 12:10:06;;;;;;;23.33;12.23;;;;;;;11.58;70.62;96499.09;5090047;28;20205;-77
2023/03/04 12:13:00;;;;;;;22.60;12.67;;;;;;;11.61;69.37;96496.75;5080030;28;20208;-77
2023/03/04 12:15:32;;;;;;;20.40;12.67;;;;;;;11.78;69.65;96496.09;5088612;28;20208;-77